Latest Weather Observations for Munglinup West

IDW60801

Issued at 10:33 am WST Monday 21 August 2017 (issued every 30 minutes, with the page automatically refreshed every 10 minutes)

About weather observations | Map of weather stations | Latest weather observations for WA | Other Formats
Station Details ID: 012044 Name: MUNGLINUP WEST Lat: -33.55 Lon: 120.70 Height: 220.0 m
Data from the previous 72 hours. | See also: Recent months at Munglinup West
Date/Time
WST
Temp
°C
App
Temp
°C
Dew
Point
°C
Rel
Hum
%
Delta-T
°C
Wind Press
QNH
hPa
Press
MSL
hPa
Rain since
9am
mm
Dir  Spd
km/h
Gust
km/h
Spd
kts
Gust
kts
21/10:30am 14.1 9.4 6.2 59 3.8 WNW 20 30 11 16 1021.8 1021.8 0.0
21/10:00am 13.4 8.6 5.8 60 3.6 WNW 20 28 11 15 1022.0 1022.0 0.0
21/09:30am 12.3 7.1 5.5 63 3.2 WNW 22 32 12 17 1022.0 1022.0 0.0
21/09:00am 12.0 7.7 5.2 63 3.2 WNW 17 24 9 13 1022.3 1022.3 0.0
21/08:30am 10.6 6.2 2.7 58 3.4 NW 15 22 8 12 1022.2 1022.2 0.0
21/08:00am 8.6 4.6 0.6 57 3.2 NW 11 17 6 9 1022.1 1022.1 0.0
21/07:30am 6.9 3.0 1.2 67 2.3 NNW 11 15 6 8 1022.0 1022.0 0.0
21/07:00am 5.6 1.4 -1.1 62 2.5 NW 11 15 6 8 1021.8 1021.8 0.0
21/06:30am 5.4 2.1 4.7 95 0.3 NNW 11 17 6 9 1021.6 1021.6 0.0
21/06:00am 5.3 2.0 4.6 95 0.3 NNW 11 19 6 10 1021.5 1021.5 0.0
21/05:30am 6.0 2.4 5.1 94 0.4 NNW 13 19 7 10 1021.4 1021.4 0.0
21/05:00am 6.2 2.7 5.3 94 0.4 NNW 13 19 7 10 1021.2 1021.2 0.0
21/04:30am 6.7 3.3 6.0 95 0.3 NW 13 17 7 9 1021.2 1021.2 0.0
21/04:00am 6.8 3.4 5.9 94 0.4 NW 13 19 7 10 1021.2 1021.2 0.0
21/03:30am 7.2 3.5 6.3 94 0.4 NW 15 19 8 10 1021.3 1021.3 0.0
21/03:00am 7.5 4.7 7.1 97 0.2 NW 11 17 6 9 1021.2 1021.2 0.0
21/02:30am 6.8 3.9 6.4 97 0.2 NW 11 15 6 8 1021.4 1021.4 0.0
21/02:00am 6.4 3.4 6.1 98 0.1 NW 11 15 6 8 1021.5 1021.5 0.0
21/01:30am 7.0 4.1 6.7 98 0.1 NW 11 15 6 8 1021.5 1021.5 0.0
21/01:00am 6.8 4.3 6.5 98 0.1 NW 9 11 5 6 1021.6 1021.6 0.0
21/12:30am 6.7 4.1 6.3 97 0.2 NW 9 9 5 5 1021.7 1021.7 0.0
21/12:00am 6.8 4.3 6.4 97 0.2 NNW 9 9 5 5 1021.6 1021.6 0.0
 
Date/Time
WST
Temp
°C
App
Temp
°C
Dew
Point
°C
Rel
Hum
%
Delta-T
°C
Wind Press
QNH
hPa
Press
MSL
hPa
Rain since
9am
mm
Dir  Spd
km/h
Gust
km/h
Spd
kts
Gust
kts
20/11:30pm 7.1 4.6 6.7 97 0.2 NW 9 11 5 6 1021.6 1021.6 0.0
20/11:00pm 7.6 5.6 7.0 96 0.3 NW 7 11 4 6 1021.8 1021.8 0.0
20/10:30pm 8.4 6.5 7.6 95 0.4 NW 7 11 4 6 1022.0 1022.0 0.0
20/10:00pm 9.0 7.4 8.1 94 0.4 W 6 7 3 4 1022.1 1022.1 0.0
20/09:30pm 10.2 9.3 9.3 94 0.5 WNW 4 7 2 4 1022.2 1022.2 0.0
20/09:00pm 10.1 8.9 9.5 96 0.3 NW 6 7 3 4 1022.2 1022.2 0.0
20/08:30pm 10.3 9.2 9.8 97 0.3 SW 6 7 3 4 1022.1 1022.1 0.0
20/08:00pm 10.4 9.7 10.1 98 0.2 WSW 4 6 2 3 1022.0 1022.0 0.0
20/07:30pm 10.4 9.7 10.1 98 0.2 SW 4 6 2 3 1022.0 1022.0 0.0
20/07:00pm 10.6 9.6 10.3 98 0.2 SW 6 7 3 4 1021.9 1021.9 0.0
20/06:30pm 11.1 8.4 7.4 78 1.8 SW 11 15 6 8 1021.7 1021.7 0.0
20/06:00pm 11.3 8.7 7.6 78 1.8 SW 11 13 6 7 1021.6 1021.6 0.0
20/05:30pm 11.3 8.7 6.2 71 2.4 SW 9 11 5 6 1021.4 1021.4 0.0
20/05:00pm 11.4 8.9 11.1 98 0.2 SW 15 20 8 11 1021.3 1021.3 0.0
20/04:30pm 12.2 8.7 10.8 91 0.7 SW 20 35 11 19 1021.1 1021.1 0.0
20/04:00pm 13.5 9.0 11.4 87 1.1 SW 26 33 14 18 1020.9 1020.9 0.0
20/03:30pm 14.5 9.9 10.9 79 1.9 SW 26 37 14 20 1020.8 1020.8 0.0
20/03:00pm 15.0 10.2 11.6 80 1.8 SW 28 39 15 21 1020.7 1020.7 0.0
20/02:30pm 14.7 10.1 10.9 78 2.0 SW 26 33 14 18 1020.5 1020.5 0.0
20/02:00pm 14.4 10.2 11.2 81 1.7 SW 24 33 13 18 1020.5 1020.5 0.0
20/01:30pm 15.4 10.5 11.4 77 2.2 SW 28 37 15 20 1020.3 1020.3 0.0
20/01:00pm 13.0 9.0 11.7 92 0.7 SSW 24 33 13 18 1020.6 1020.6 0.0
20/12:37pm 13.7 8.8 11.2 85 1.3 SSW 28 46 15 25 1020.4 1020.4 0.0
20/12:30pm 13.8 9.9 12.0 89 1.0 SW 24 35 13 19 1020.5 1020.5 0.0
20/12:00pm 14.8 10.3 12.5 86 1.3 SW 28 39 15 21 1020.6 1020.6 0.0
20/11:30am 13.8 10.8 12.4 91 0.8 SSW 20 32 11 17 1020.8 1020.8 0.0
20/11:00am 13.9 8.4 11.9 88 1.1 SW 32 43 17 23 1020.8 1020.8 0.0
20/10:30am 13.3 7.0 11.2 87 1.1 SSW 35 44 19 24 1020.8 1020.8 0.0
20/10:00am 13.0 8.7 11.9 93 0.6 SW 26 35 14 19 1020.3 1020.3 0.0
20/09:30am 13.1 8.1 12.3 95 0.4 SSW 30 41 16 22 1019.9 1019.9 0.0
20/09:00am 11.7 6.7 10.8 94 0.5 SW 28 44 15 24 1019.6 1019.7 2.2
20/08:30am 12.3 6.9 10.9 91 0.7 SW 30 43 16 23 1019.2 1019.2 2.0
20/08:00am 11.7 7.1 11.2 97 0.3 SSW 26 37 14 20 1018.6 1018.6 2.0
20/07:30am 11.1 6.5 11.1 100 0.0 SSW 26 37 14 20 1017.9 1017.9 2.0
20/07:00am 10.5 5.0 10.5 100 0.0 SW 30 44 16 24 1017.1 1017.1 2.0
20/06:30am 10.1 5.6 10.1 100 0.0 SSW 24 32 13 17 1016.3 1016.3 2.0
20/06:00am 10.8 6.1 10.8 100 0.0 SW 26 35 14 19 1015.9 1015.9 1.8
20/05:30am 10.8 6.5 10.8 100 0.0 SW 24 35 13 19 1015.4 1015.3 1.6
20/05:00am 10.9 6.6 10.9 100 0.0 SSW 24 35 13 19 1014.7 1014.7 1.6
20/04:30am 11.3 6.8 11.3 100 0.0 SSW 26 39 14 21 1014.4 1014.4 1.4
20/04:00am 11.1 6.5 11.1 100 0.0 SSW 26 39 14 21 1013.9 1013.9 1.4
20/03:30am 11.0 7.2 11.0 100 0.0 WSW 22 32 12 17 1013.3 1013.3 1.4
20/03:00am 10.7 5.4 7.0 78 1.8 WSW 24 33 13 18 1012.9 1012.9 1.0
20/02:30am 10.7 5.1 5.3 69 2.5 WSW 24 32 13 17 1012.8 1012.8 1.0
20/02:00am 10.4 4.3 5.0 69 2.5 W 26 35 14 19 1012.6 1012.6 0.6
20/01:30am 10.2 5.2 4.6 68 2.5 W 20 28 11 15 1012.6 1012.6 0.2
20/01:00am 10.3 4.8 4.0 65 2.8 W 22 30 12 16 1012.5 1012.5 0.0
20/12:30am 10.6 5.9 7.7 82 1.4 W 22 32 12 17 1012.7 1012.7 0.0
20/12:00am 9.8 6.1 4.2 68 2.5 WNW 13 20 7 11 1012.9 1012.9 0.0
 
Date/Time
WST
Temp
°C
App
Temp
°C
Dew
Point
°C
Rel
Hum
%
Delta-T
°C
Wind Press
QNH
hPa
Press
MSL
hPa
Rain since
9am
mm
Dir  Spd
km/h
Gust
km/h
Spd
kts
Gust
kts
19/11:30pm 9.6 4.7 2.2 60 3.2 WNW 17 26 9 14 1013.1 1013.1 0.0
19/11:00pm 9.4 4.5 2.0 60 3.1 WNW 17 28 9 15 1013.3 1013.3 0.0
19/10:30pm 9.4 4.5 2.3 61 3.0 NW 17 24 9 13 1013.5 1013.5 0.0
19/10:00pm 9.1 4.6 2.4 63 2.9 NW 15 24 8 13 1013.7 1013.7 0.0
19/09:30pm 8.9 4.2 2.9 66 2.6 NW 17 22 9 12 1013.8 1013.8 0.0
19/09:00pm 8.7 4.1 1.8 62 2.9 NW 15 24 8 13 1013.8 1013.8 0.0
19/08:30pm 8.6 4.8 1.7 62 2.9 NW 11 17 6 9 1013.7 1013.7 0.0
19/08:00pm 8.8 5.7 5.7 81 1.4 NW 11 15 6 8 1013.8 1013.8 0.0
19/07:30pm 9.6 6.2 2.0 59 3.2 NW 9 15 5 8 1013.9 1013.9 0.0
19/07:00pm 10.9 6.7 3.7 61 3.2 WNW 15 20 8 11 1013.7 1013.7 0.0
19/06:30pm 11.2 7.4 3.7 60 3.4 WNW 13 20 7 11 1013.5 1013.5 0.0
19/06:00pm 11.8 7.5 3.1 55 3.9 WNW 15 20 8 11 1013.3 1013.3 0.0
19/05:30pm 12.8 7.0 4.3 56 3.9 W 24 35 13 19 1013.0 1013.0 0.0
19/05:00pm 13.6 7.0 4.2 53 4.3 W 28 39 15 21 1012.7 1012.7 0.0
19/04:41pm 14.6 8.1 4.9 52 4.6 WNW 28 46 15 25 1012.4 1012.4 0.0
19/04:30pm 15.1 9.5 5.6 53 4.6 WNW 24 37 13 20 1012.3 1012.3 0.0
19/04:00pm 14.7 8.9 4.4 50 4.8 WNW 24 35 13 19 1012.0 1012.0 0.0
19/03:31pm 16.0 9.7 5.9 51 4.9 WNW 28 46 15 25 1011.6 1011.5 0.0
19/03:30pm 16.1 9.9 6.0 51 4.9 W 28 43 15 23 1011.6 1011.5 0.0
19/03:00pm 16.7 10.8 5.9 49 5.3 NW 26 39 14 21 1011.2 1011.1 0.0
19/02:30pm 17.9 13.0 6.7 48 5.6 NW 22 33 12 18 1011.0 1010.9 0.0
19/02:00pm 17.4 12.8 6.6 49 5.4 NW 20 30 11 16 1011.2 1011.1 0.0
19/01:30pm 17.0 12.5 6.8 51 5.1 WNW 20 30 11 16 1011.3 1011.2 0.0
19/01:00pm 17.6 13.1 6.8 49 5.4 WNW 20 37 11 20 1011.3 1011.2 0.0
19/12:30pm 18.0 13.4 8.3 53 5.0 WNW 22 35 12 19 1011.6 1011.5 0.0
19/12:00pm 18.0 13.4 6.5 47 5.8 WNW 20 32 11 17 1011.6 1011.5 0.0
19/11:30am 17.7 14.3 5.9 46 5.8 NW 13 17 7 9 1011.9 1011.9 0.0
19/11:00am 17.1 14.1 6.0 48 5.5 NNW 11 20 6 11 1012.8 1012.8 0.0
19/10:30am 16.1 12.2 5.4 49 5.2 W 15 24 8 13 1013.1 1013.1 0.0
19/10:00am 15.6 12.9 5.5 51 4.9 WSW 9 13 5 7 1013.6 1013.6 0.0
19/09:30am 15.0 11.0 4.7 50 4.9 WSW 15 22 8 12 1013.8 1013.8 0.0
19/09:00am 15.9 13.4 4.9 48 5.3 NNW 7 13 4 7 1013.6 1013.6 0.0
19/08:30am 14.4 9.7 2.9 46 5.2 N 17 26 9 14 1013.4 1013.4 0.0
19/08:00am 12.9 7.2 2.7 50 4.5 NNE 22 33 12 18 1012.4 1012.4 0.0
19/07:30am 11.7 5.5 2.2 52 4.1 NE 24 32 13 17 1012.4 1012.4 0.0
19/07:00am 10.6 4.7 1.4 53 3.9 NE 22 30 12 16 1012.4 1012.4 0.0
19/06:30am 11.5 3.7 2.0 52 4.1 NE 32 43 17 23 1012.1 1012.1 0.0
19/06:00am 12.0 4.6 1.9 50 4.4 NE 30 43 16 23 1012.3 1012.3 0.0
19/05:30am 12.8 5.8 2.1 48 4.7 NE 28 37 15 20 1012.4 1012.4 0.0
19/05:00am 12.1 5.9 2.0 50 4.4 NE 24 37 13 20 1012.8 1012.8 0.0
19/04:30am 11.5 5.6 2.0 52 4.1 NE 22 30 12 16 1013.3 1013.3 0.0
19/04:00am 11.0 6.0 1.5 52 4.0 NE 17 22 9 12 1013.5 1013.5 0.0
19/03:30am 10.8 5.4 1.4 52 4.0 NE 19 24 10 13 1013.8 1013.8 0.0
19/03:00am 10.5 6.1 0.5 50 4.1 NNE 13 15 7 8 1014.4 1014.4 0.0
19/02:30am 11.4 6.7 0.8 48 4.5 NE 15 20 8 11 1015.0 1014.9 0.0
19/02:00am 11.9 6.4 0.4 45 4.8 NE 19 24 10 13 1015.1 1015.0 0.0
19/01:30am 11.6 6.0 -0.2 44 4.9 NE 19 24 10 13 1015.1 1015.0 0.0
19/01:00am 11.5 6.0 0.3 46 4.7 NE 19 24 10 13 1015.2 1015.1 0.0
19/12:30am 12.4 6.8 -0.1 42 5.2 NE 19 24 10 13 1015.6 1015.5 0.0
19/12:00am 12.3 7.2 0.7 45 4.9 NE 17 22 9 12 1015.6 1015.5 0.0
 
Date/Time
WST
Temp
°C
App
Temp
°C
Dew
Point
°C
Rel
Hum
%
Delta-T
°C
Wind Press
QNH
hPa
Press
MSL
hPa
Rain since
9am
mm
Dir  Spd
km/h
Gust
km/h
Spd
kts
Gust
kts
18/11:30pm 12.3 7.1 0.1 43 5.1 NE 17 20 9 11 1015.8 1015.8 0.0
18/11:00pm 12.6 7.9 1.0 45 5.0 NE 15 19 8 10 1015.9 1015.9 0.0
18/10:30pm 13.2 8.6 1.5 45 5.1 NE 15 20 8 11 1016.2 1016.2 0.0
18/10:00pm 12.8 8.6 1.5 46 4.9 NE 13 19 7 10 1016.4 1016.4 0.0
18/09:30pm 12.0 7.3 1.1 47 4.6 NNE 15 19 8 10 1017.1 1017.1 0.0
18/09:00pm 12.4 7.7 1.1 46 4.8 NE 15 19 8 10 1016.9 1016.9 0.0
18/08:30pm 11.8 6.7 0.9 47 4.6 NE 17 20 9 11 1016.8 1016.8 0.0
18/08:00pm 12.2 6.8 1.2 47 4.7 ENE 19 24 10 13 1016.4 1016.4 0.0
18/07:30pm 12.4 7.1 1.7 48 4.6 ENE 19 24 10 13 1016.3 1016.3 0.0
18/07:00pm 13.4 8.8 3.5 51 4.5 NE 17 20 9 11 1016.7 1016.7 0.0
18/06:30pm 14.0 9.5 4.0 51 4.6 ENE 17 20 9 11 1016.5 1016.5 0.0
18/06:00pm 14.6 10.5 4.6 51 4.7 ENE 15 19 8 10 1016.0 1016.0 0.0
18/05:30pm 14.2 10.2 5.0 54 4.3 ENE 15 17 8 9 1015.9 1015.9 0.0
18/05:00pm 17.3 14.7 6.2 48 5.5 ENE 9 11 5 6 1015.8 1015.8 0.0
18/04:30pm 19.4 17.1 5.5 40 6.9 NE 7 9 4 5 1016.0 1016.0 0.0
18/04:00pm 20.4 17.0 4.0 34 7.9 NNE 11 17 6 9 1016.3 1016.3 0.0
18/03:30pm 20.9 17.0 3.6 32 8.4 N 13 22 7 12 1016.4 1016.4 0.0
18/03:00pm 21.2 16.5 3.0 30 8.7 N 17 28 9 15 1016.7 1016.7 0.0
18/02:30pm 21.3 18.3 4.0 32 8.4 NNW 9 24 5 13 1016.9 1016.9 0.0
18/02:00pm 21.0 17.2 4.1 33 8.2 N 13 22 7 12 1017.0 1017.0 0.0
18/01:30pm 20.4 16.0 4.8 36 7.7 N 17 28 9 15 1017.3 1017.3 0.0
18/01:00pm 19.8 14.5 3.1 33 7.9 N 20 33 11 18 1017.7 1017.7 0.0
18/12:30pm 19.9 15.2 3.2 33 7.9 N 17 26 9 14 1018.3 1018.3 0.0
18/12:00pm 18.7 13.4 1.7 32 7.8 N 19 28 10 15 1018.9 1018.9 0.0
18/11:30am 17.9 12.2 3.0 37 7.0 N 22 33 12 18 1019.5 1019.6 0.0
18/11:00am 17.4 11.1 1.4 34 7.2 N 24 39 13 21 1020.2 1020.2 0.0

Other Formats:

Comma delimited format used in spreadsheet applications
http://www.bom.gov.au/fwo/IDW60801/IDW60801.95644.axf

JavaScript Object Notation format (JSON) in row-major order
http://www.bom.gov.au/fwo/IDW60801/IDW60801.95644.json